sensor_id;sensor_type;location;lat;lon;timestamp;temperature;humidity
530;DHT22;251;48.704;9.210;2022-10-26T00:00:08;10.90;80.50
530;DHT22;251;48.704;9.210;2022-10-26T00:02:40;11.20;80.90
530;DHT22;251;48.704;9.210;2022-10-26T00:05:08;10.90;80.50
530;DHT22;251;48.704;9.210;2022-10-26T00:07:35;11.00;81.10
530;DHT22;251;48.704;9.210;2022-10-26T00:10:01;10.90;80.30
530;DHT22;251;48.704;9.210;2022-10-26T00:12:28;11.20;79.80
530;DHT22;251;48.704;9.210;2022-10-26T00:14:55;10.90;79.60
530;DHT22;251;48.704;9.210;2022-10-26T00:17:22;10.90;78.10
530;DHT22;251;48.704;9.210;2022-10-26T00:19:50;11.20;79.00
530;DHT22;251;48.704;9.210;2022-10-26T00:22:17;10.90;79.80
530;DHT22;251;48.704;9.210;2022-10-26T00:24:44;11.00;79.00
530;DHT22;251;48.704;9.210;2022-10-26T00:27:11;11.20;79.70
530;DHT22;251;48.704;9.210;2022-10-26T00:29:38;10.80;79.30
530;DHT22;251;48.704;9.210;2022-10-26T00:32:05;10.80;79.60
530;DHT22;251;48.704;9.210;2022-10-26T00:34:32;11.20;82.20
530;DHT22;251;48.704;9.210;2022-10-26T00:37:00;10.90;81.80
530;DHT22;251;48.704;9.210;2022-10-26T00:39:27;11.00;82.60
530;DHT22;251;48.704;9.210;2022-10-26T00:41:54;10.80;82.50
530;DHT22;251;48.704;9.210;2022-10-26T00:47:37;10.90;81.70
530;DHT22;251;48.704;9.210;2022-10-26T00:50:08;11.00;81.90
530;DHT22;251;48.704;9.210;2022-10-26T00:52:37;11.20;83.10
530;DHT22;251;48.704;9.210;2022-10-26T00:55:05;11.10;84.40
530;DHT22;251;48.704;9.210;2022-10-26T00:57:34;11.00;83.30
530;DHT22;251;48.704;9.210;2022-10-26T01:00:04;10.90;82.90
530;DHT22;251;48.704;9.210;2022-10-26T01:02:31;10.90;83.10
530;DHT22;251;48.704;9.210;2022-10-26T01:04:58;10.80;83.20
530;DHT22;251;48.704;9.210;2022-10-26T01:07:27;10.90;83.30
530;DHT22;251;48.704;9.210;2022-10-26T01:09:56;11.00;83.90
530;DHT22;251;48.704;9.210;2022-10-26T01:12:23;11.00;85.00
530;DHT22;251;48.704;9.210;2022-10-26T01:14:50;10.90;85.40
530;DHT22;251;48.704;9.210;2022-10-26T01:17:33;11.20;85.50
530;DHT22;251;48.704;9.210;2022-10-26T01:23:26;10.90;85.10
530;DHT22;251;48.704;9.210;2022-10-26T01:26:31;10.90;85.60
530;DHT22;251;48.704;9.210;2022-10-26T01:29:13;11.20;86.00
530;DHT22;251;48.704;9.210;2022-10-26T01:31:52;11.00;86.00
530;DHT22;251;48.704;9.210;2022-10-26T01:34:26;11.00;86.20
530;DHT22;251;48.704;9.210;2022-10-26T01:37:02;10.90;85.50
530;DHT22;251;48.704;9.210;2022-10-26T01:39:37;11.30;86.00
530;DHT22;251;48.704;9.210;2022-10-26T01:42:07;11.30;85.10
530;DHT22;251;48.704;9.210;2022-10-26T01:44:37;11.20;85.50
530;DHT22;251;48.704;9.210;2022-10-26T01:47:11;11.20;86.40
530;DHT22;251;48.704;9.210;2022-10-26T01:49:42;11.00;87.10
530;DHT22;251;48.704;9.210;2022-10-26T01:52:10;10.90;87.70
530;DHT22;251;48.704;9.210;2022-10-26T01:54:37;11.20;86.90
530;DHT22;251;48.704;9.210;2022-10-26T01:57:06;11.00;86.40
530;DHT22;251;48.704;9.210;2022-10-26T01:59:52;10.90;86.90
530;DHT22;251;48.704;9.210;2022-10-26T02:02:42;11.00;87.80
530;DHT22;251;48.704;9.210;2022-10-26T02:05:32;11.00;87.40
530;DHT22;251;48.704;9.210;2022-10-26T02:08:17;11.20;87.50
530;DHT22;251;48.704;9.210;2022-10-26T02:10:51;11.00;87.00
530;DHT22;251;48.704;9.210;2022-10-26T02:13:27;10.90;86.40
530;DHT22;251;48.704;9.210;2022-10-26T02:15:58;11.20;86.80
530;DHT22;251;48.704;9.210;2022-10-26T02:18:30;11.20;86.20
530;DHT22;251;48.704;9.210;2022-10-26T02:21:04;11.40;86.80
530;DHT22;251;48.704;9.210;2022-10-26T02:23:34;11.50;86.90
530;DHT22;251;48.704;9.210;2022-10-26T02:26:05;11.30;87.50
530;DHT22;251;48.704;9.210;2022-10-26T02:28:36;11.30;88.50
530;DHT22;251;48.704;9.210;2022-10-26T02:31:06;11.20;90.20
530;DHT22;251;48.704;9.210;2022-10-26T02:33:38;11.20;90.80
530;DHT22;251;48.704;9.210;2022-10-26T02:36:10;11.00;90.40
530;DHT22;251;48.704;9.210;2022-10-26T02:38:39;11.00;90.30
530;DHT22;251;48.704;9.210;2022-10-26T02:41:08;11.30;90.40
530;DHT22;251;48.704;9.210;2022-10-26T02:43:42;11.30;89.40
530;DHT22;251;48.704;9.210;2022-10-26T02:46:14;11.30;90.00
530;DHT22;251;48.704;9.210;2022-10-26T02:48:44;11.00;89.50
530;DHT22;251;48.704;9.210;2022-10-26T02:51:13;11.50;90.10
530;DHT22;251;48.704;9.210;2022-10-26T02:53:47;11.20;90.10
530;DHT22;251;48.704;9.210;2022-10-26T02:56:20;11.40;90.20
530;DHT22;251;48.704;9.210;2022-10-26T02:58:50;11.00;90.20
530;DHT22;251;48.704;9.210;2022-10-26T03:01:19;10.90;88.80
530;DHT22;251;48.704;9.210;2022-10-26T03:03:48;11.20;90.60
530;DHT22;251;48.704;9.210;2022-10-26T03:06:20;10.90;91.30
530;DHT22;251;48.704;9.210;2022-10-26T03:08:47;11.20;92.10
530;DHT22;251;48.704;9.210;2022-10-26T03:11:14;10.90;92.80
530;DHT22;251;48.704;9.210;2022-10-26T03:13:42;11.30;92.80
530;DHT22;251;48.704;9.210;2022-10-26T03:16:09;11.30;92.10
530;DHT22;251;48.704;9.210;2022-10-26T03:18:36;11.50;91.80
530;DHT22;251;48.704;9.210;2022-10-26T03:21:04;11.60;92.30
530;DHT22;251;48.704;9.210;2022-10-26T03:23:31;11.10;92.50
530;DHT22;251;48.704;9.210;2022-10-26T03:25:59;10.90;91.80
530;DHT22;251;48.704;9.210;2022-10-26T03:28:26;11.10;91.70
530;DHT22;251;48.704;9.210;2022-10-26T03:30:52;10.90;91.70
530;DHT22;251;48.704;9.210;2022-10-26T03:33:19;11.20;91.80
530;DHT22;251;48.704;9.210;2022-10-26T03:35:53;11.50;92.10
530;DHT22;251;48.704;9.210;2022-10-26T03:38:21;11.20;93.00
530;DHT22;251;48.704;9.210;2022-10-26T03:40:48;11.00;94.40
530;DHT22;251;48.704;9.210;2022-10-26T03:43:15;11.20;94.30
530;DHT22;251;48.704;9.210;2022-10-26T03:45:42;11.30;94.10
530;DHT22;251;48.704;9.210;2022-10-26T03:48:08;11.30;93.60
530;DHT22;251;48.704;9.210;2022-10-26T03:50:35;11.20;93.20
530;DHT22;251;48.704;9.210;2022-10-26T03:53:02;11.60;93.20
530;DHT22;251;48.704;9.210;2022-10-26T03:55:31;11.40;93.30
530;DHT22;251;48.704;9.210;2022-10-26T03:57:57;11.40;93.20
530;DHT22;251;48.704;9.210;2022-10-26T04:00:24;11.30;93.10
530;DHT22;251;48.704;9.210;2022-10-26T04:02:55;11.50;93.20
530;DHT22;251;48.704;9.210;2022-10-26T04:05:23;11.30;92.90
530;DHT22;251;48.704;9.210;2022-10-26T04:07:54;11.60;93.40
530;DHT22;251;48.704;9.210;2022-10-26T04:10:22;11.30;93.20
530;DHT22;251;48.704;9.210;2022-10-26T04:12:54;11.40;93.10
530;DHT22;251;48.704;9.210;2022-10-26T04:15:22;11.60;93.20
530;DHT22;251;48.704;9.210;2022-10-26T04:17:54;11.60;93.50
530;DHT22;251;48.704;9.210;2022-10-26T04:20:22;11.70;93.40
530;DHT22;251;48.704;9.210;2022-10-26T04:22:56;11.70;93.90
530;DHT22;251;48.704;9.210;2022-10-26T04:25:23;11.20;94.90
530;DHT22;251;48.704;9.210;2022-10-26T04:27:51;11.70;95.90
530;DHT22;251;48.704;9.210;2022-10-26T04:30:19;11.60;95.90
530;DHT22;251;48.704;9.210;2022-10-26T04:32:46;11.70;96.00
530;DHT22;251;48.704;9.210;2022-10-26T04:35:13;11.60;96.40
530;DHT22;251;48.704;9.210;2022-10-26T04:37:40;11.60;97.00
530;DHT22;251;48.704;9.210;2022-10-26T04:40:08;11.60;98.30
530;DHT22;251;48.704;9.210;2022-10-26T04:42:42;11.60;99.00
530;DHT22;251;48.704;9.210;2022-10-26T04:45:13;11.70;99.50
530;DHT22;251;48.704;9.210;2022-10-26T04:47:40;11.30;99.40
530;DHT22;251;48.704;9.210;2022-10-26T04:50:08;11.60;99.90
530;DHT22;251;48.704;9.210;2022-10-26T04:52:35;11.50;99.90
530;DHT22;251;48.704;9.210;2022-10-26T04:55:02;11.70;99.90
530;DHT22;251;48.704;9.210;2022-10-26T04:57:30;11.30;99.90
530;DHT22;251;48.704;9.210;2022-10-26T04:59:58;11.60;99.90
530;DHT22;251;48.704;9.210;2022-10-26T05:02:26;11.50;99.90
530;DHT22;251;48.704;9.210;2022-10-26T05:04:53;11.70;99.90
530;DHT22;251;48.704;9.210;2022-10-26T05:07:20;11.70;99.90
530;DHT22;251;48.704;9.210;2022-10-26T05:09:47;11.30;99.90
530;DHT22;251;48.704;9.210;2022-10-26T05:12:14;11.40;99.90
530;DHT22;251;48.704;9.210;2022-10-26T05:14:42;11.70;99.90
530;DHT22;251;48.704;9.210;2022-10-26T05:17:09;11.30;99.90
530;DHT22;251;48.704;9.210;2022-10-26T05:19:37;11.60;99.90
530;DHT22;251;48.704;9.210;2022-10-26T05:22:04;11.50;99.90
530;DHT22;251;48.704;9.210;2022-10-26T05:24:31;11.60;99.90
530;DHT22;251;48.704;9.210;2022-10-26T05:26:58;11.70;99.90
530;DHT22;251;48.704;9.210;2022-10-26T05:29:25;11.30;99.90
530;DHT22;251;48.704;9.210;2022-10-26T05:31:52;11.60;99.90
530;DHT22;251;48.704;9.210;2022-10-26T05:34:18;11.70;99.90
530;DHT22;251;48.704;9.210;2022-10-26T05:36:47;11.30;99.90
530;DHT22;251;48.704;9.210;2022-10-26T05:39:14;11.30;99.90
530;DHT22;251;48.704;9.210;2022-10-26T05:41:40;11.40;99.90
530;DHT22;251;48.704;9.210;2022-10-26T05:44:07;11.60;99.90
530;DHT22;251;48.704;9.210;2022-10-26T05:46:34;11.50;99.90
530;DHT22;251;48.704;9.210;2022-10-26T05:49:01;11.50;99.90
530;DHT22;251;48.704;9.210;2022-10-26T05:51:28;11.30;99.90
530;DHT22;251;48.704;9.210;2022-10-26T05:53:57;11.70;99.90
530;DHT22;251;48.704;9.210;2022-10-26T05:56:35;11.20;99.90
530;DHT22;251;48.704;9.210;2022-10-26T05:59:03;11.70;99.90
530;DHT22;251;48.704;9.210;2022-10-26T06:01:38;11.70;99.90
530;DHT22;251;48.704;9.210;2022-10-26T06:04:17;11.30;99.90
530;DHT22;251;48.704;9.210;2022-10-26T06:06:52;11.60;99.90
530;DHT22;251;48.704;9.210;2022-10-26T06:09:21;11.50;99.90
530;DHT22;251;48.704;9.210;2022-10-26T06:11:49;11.70;99.90
530;DHT22;251;48.704;9.210;2022-10-26T06:14:19;11.40;99.90
530;DHT22;251;48.704;9.210;2022-10-26T06:16:56;11.60;99.90
530;DHT22;251;48.704;9.210;2022-10-26T06:19:37;11.40;99.90
530;DHT22;251;48.704;9.210;2022-10-26T06:22:17;11.40;99.90
530;DHT22;251;48.704;9.210;2022-10-26T06:24:52;11.60;99.90
530;DHT22;251;48.704;9.210;2022-10-26T06:27:30;11.50;99.90
530;DHT22;251;48.704;9.210;2022-10-26T06:30:02;11.60;99.90
530;DHT22;251;48.704;9.210;2022-10-26T06:32:31;11.60;99.90
530;DHT22;251;48.704;9.210;2022-10-26T06:35:13;11.60;99.90
530;DHT22;251;48.704;9.210;2022-10-26T06:37:44;11.50;99.90
530;DHT22;251;48.704;9.210;2022-10-26T06:40:15;11.70;99.90
530;DHT22;251;48.704;9.210;2022-10-26T06:42:43;11.70;99.90
530;DHT22;251;48.704;9.210;2022-10-26T06:45:12;11.60;99.90
530;DHT22;251;48.704;9.210;2022-10-26T06:47:44;11.70;99.90
530;DHT22;251;48.704;9.210;2022-10-26T06:50:25;11.90;99.90
530;DHT22;251;48.704;9.210;2022-10-26T06:52:57;11.70;99.90
530;DHT22;251;48.704;9.210;2022-10-26T06:55:30;11.60;99.90
530;DHT22;251;48.704;9.210;2022-10-26T06:58:06;11.80;99.90
530;DHT22;251;48.704;9.210;2022-10-26T07:00:34;11.90;99.90
530;DHT22;251;48.704;9.210;2022-10-26T07:03:00;11.70;99.90
530;DHT22;251;48.704;9.210;2022-10-26T07:05:27;12.10;99.90
530;DHT22;251;48.704;9.210;2022-10-26T07:07:54;11.70;99.90
530;DHT22;251;48.704;9.210;2022-10-26T07:10:21;12.00;99.90
530;DHT22;251;48.704;9.210;2022-10-26T07:12:49;12.10;99.90
530;DHT22;251;48.704;9.210;2022-10-26T07:15:16;12.10;99.90
530;DHT22;251;48.704;9.210;2022-10-26T07:17:43;12.10;99.90
530;DHT22;251;48.704;9.210;2022-10-26T07:20:11;12.10;99.90
530;DHT22;251;48.704;9.210;2022-10-26T07:22:38;11.70;99.90
530;DHT22;251;48.704;9.210;2022-10-26T07:25:06;11.80;99.90
530;DHT22;251;48.704;9.210;2022-10-26T07:27:33;12.00;99.90
530;DHT22;251;48.704;9.210;2022-10-26T07:30:01;12.10;99.90
530;DHT22;251;48.704;9.210;2022-10-26T07:32:28;12.00;99.90
530;DHT22;251;48.704;9.210;2022-10-26T07:34:55;11.90;99.90
530;DHT22;251;48.704;9.210;2022-10-26T07:37:21;12.10;99.90
530;DHT22;251;48.704;9.210;2022-10-26T07:39:48;12.30;99.90
530;DHT22;251;48.704;9.210;2022-10-26T07:42:15;12.40;99.90
530;DHT22;251;48.704;9.210;2022-10-26T07:44:42;12.30;99.90
530;DHT22;251;48.704;9.210;2022-10-26T07:47:10;12.50;99.90
530;DHT22;251;48.704;9.210;2022-10-26T07:49:40;12.40;99.90
530;DHT22;251;48.704;9.210;2022-10-26T07:52:08;12.40;99.90
530;DHT22;251;48.704;9.210;2022-10-26T07:54:35;12.60;99.90
530;DHT22;251;48.704;9.210;2022-10-26T07:57:02;12.70;99.90
530;DHT22;251;48.704;9.210;2022-10-26T07:59:29;12.80;99.90
530;DHT22;251;48.704;9.210;2022-10-26T08:01:56;13.00;99.90
530;DHT22;251;48.704;9.210;2022-10-26T08:04:24;12.90;99.90
530;DHT22;251;48.704;9.210;2022-10-26T08:06:51;13.20;99.90
530;DHT22;251;48.704;9.210;2022-10-26T08:09:18;13.20;99.90
530;DHT22;251;48.704;9.210;2022-10-26T08:11:45;13.20;99.90
530;DHT22;251;48.704;9.210;2022-10-26T08:14:12;13.30;99.90
530;DHT22;251;48.704;9.210;2022-10-26T08:16:39;13.50;99.90
530;DHT22;251;48.704;9.210;2022-10-26T08:19:06;13.50;99.90
530;DHT22;251;48.704;9.210;2022-10-26T08:21:35;13.50;99.90
530;DHT22;251;48.704;9.210;2022-10-26T08:24:02;13.60;99.90
530;DHT22;251;48.704;9.210;2022-10-26T08:26:28;13.30;99.90
530;DHT22;251;48.704;9.210;2022-10-26T08:28:55;13.40;99.90
530;DHT22;251;48.704;9.210;2022-10-26T08:31:22;13.70;99.50
530;DHT22;251;48.704;9.210;2022-10-26T08:33:49;13.80;98.10
530;DHT22;251;48.704;9.210;2022-10-26T08:36:19;13.40;97.50
530;DHT22;251;48.704;9.210;2022-10-26T08:38:49;13.70;95.70
530;DHT22;251;48.704;9.210;2022-10-26T08:41:17;13.50;94.90
530;DHT22;251;48.704;9.210;2022-10-26T08:43:48;13.80;94.30
530;DHT22;251;48.704;9.210;2022-10-26T08:46:20;13.80;93.00
530;DHT22;251;48.704;9.210;2022-10-26T08:48:53;13.90;92.30
530;DHT22;251;48.704;9.210;2022-10-26T08:51:23;13.80;91.40
530;DHT22;251;48.704;9.210;2022-10-26T08:53:56;13.80;91.20
530;DHT22;251;48.704;9.210;2022-10-26T08:56:26;14.10;90.90
530;DHT22;251;48.704;9.210;2022-10-26T08:58:55;13.90;88.70
530;DHT22;251;48.704;9.210;2022-10-26T09:01:23;14.10;90.40
530;DHT22;251;48.704;9.210;2022-10-26T09:03:50;14.10;89.30
530;DHT22;251;48.704;9.210;2022-10-26T09:06:22;14.10;88.80
530;DHT22;251;48.704;9.210;2022-10-26T09:08:57;14.10;90.20
530;DHT22;251;48.704;9.210;2022-10-26T09:11:39;14.20;89.30
530;DHT22;251;48.704;9.210;2022-10-26T09:14:15;14.20;84.20
530;DHT22;251;48.704;9.210;2022-10-26T09:16:53;14.60;82.60
530;DHT22;251;48.704;9.210;2022-10-26T09:19:34;14.40;83.90
530;DHT22;251;48.704;9.210;2022-10-26T09:22:08;14.60;81.30
530;DHT22;251;48.704;9.210;2022-10-26T09:24:43;14.60;82.10
530;DHT22;251;48.704;9.210;2022-10-26T09:27:17;14.50;84.70
530;DHT22;251;48.704;9.210;2022-10-26T09:29:46;14.50;82.60
530;DHT22;251;48.704;9.210;2022-10-26T09:32:17;14.60;79.40
530;DHT22;251;48.704;9.210;2022-10-26T09:34:47;14.80;80.90
530;DHT22;251;48.704;9.210;2022-10-26T09:37:18;15.00;79.20
530;DHT22;251;48.704;9.210;2022-10-26T09:39:55;14.90;73.90
530;DHT22;251;48.704;9.210;2022-10-26T09:42:27;14.90;71.10
530;DHT22;251;48.704;9.210;2022-10-26T09:45:00;15.10;69.40
530;DHT22;251;48.704;9.210;2022-10-26T09:47:34;15.00;67.60
530;DHT22;251;48.704;9.210;2022-10-26T09:50:06;15.10;67.30
530;DHT22;251;48.704;9.210;2022-10-26T09:52:41;15.10;67.00
530;DHT22;251;48.704;9.210;2022-10-26T09:55:11;15.10;65.80
530;DHT22;251;48.704;9.210;2022-10-26T09:57:39;15.70;63.80
530;DHT22;251;48.704;9.210;2022-10-26T10:00:12;15.70;62.70
530;DHT22;251;48.704;9.210;2022-10-26T10:02:41;16.00;62.00
530;DHT22;251;48.704;9.210;2022-10-26T10:05:24;15.60;62.70
530;DHT22;251;48.704;9.210;2022-10-26T10:07:52;15.90;60.60
530;DHT22;251;48.704;9.210;2022-10-26T10:10:21;15.90;58.80
530;DHT22;251;48.704;9.210;2022-10-26T10:12:49;16.30;56.50
530;DHT22;251;48.704;9.210;2022-10-26T10:15:19;16.40;57.60
530;DHT22;251;48.704;9.210;2022-10-26T10:17:47;16.20;57.20
530;DHT22;251;48.704;9.210;2022-10-26T10:20:19;16.30;56.20
530;DHT22;251;48.704;9.210;2022-10-26T10:22:54;16.30;55.60
530;DHT22;251;48.704;9.210;2022-10-26T10:25:36;16.30;55.70
530;DHT22;251;48.704;9.210;2022-10-26T10:28:19;16.30;55.40
530;DHT22;251;48.704;9.210;2022-10-26T10:30:52;16.50;54.10
530;DHT22;251;48.704;9.210;2022-10-26T10:33:20;16.50;54.00
530;DHT22;251;48.704;9.210;2022-10-26T10:35:49;16.30;53.00
530;DHT22;251;48.704;9.210;2022-10-26T10:38:19;16.70;51.10
530;DHT22;251;48.704;9.210;2022-10-26T10:40:52;17.10;52.50
530;DHT22;251;48.704;9.210;2022-10-26T10:43:21;17.00;49.20
530;DHT22;251;48.704;9.210;2022-10-26T10:45:50;17.20;47.80
530;DHT22;251;48.704;9.210;2022-10-26T10:48:18;17.30;47.90
530;DHT22;251;48.704;9.210;2022-10-26T10:50:51;17.30;45.90
530;DHT22;251;48.704;9.210;2022-10-26T10:53:21;17.60;46.90
530;DHT22;251;48.704;9.210;2022-10-26T10:56:11;17.60;45.10
530;DHT22;251;48.704;9.210;2022-10-26T10:58:47;17.60;43.10
530;DHT22;251;48.704;9.210;2022-10-26T11:01:20;17.70;42.90
530;DHT22;251;48.704;9.210;2022-10-26T11:06:45;17.80;40.70
530;DHT22;251;48.704;9.210;2022-10-26T11:09:15;18.00;42.00
530;DHT22;251;48.704;9.210;2022-10-26T11:11:48;17.90;39.30
530;DHT22;251;48.704;9.210;2022-10-26T11:14:18;17.70;39.60
530;DHT22;251;48.704;9.210;2022-10-26T11:16:50;17.80;40.30
530;DHT22;251;48.704;9.210;2022-10-26T11:19:22;18.10;42.20
530;DHT22;251;48.704;9.210;2022-10-26T11:21:52;17.90;40.80
530;DHT22;251;48.704;9.210;2022-10-26T11:24:23;18.00;42.00
530;DHT22;251;48.704;9.210;2022-10-26T11:26:54;18.00;39.70
530;DHT22;251;48.704;9.210;2022-10-26T11:29:30;18.00;39.70
530;DHT22;251;48.704;9.210;2022-10-26T11:32:04;18.10;38.70
530;DHT22;251;48.704;9.210;2022-10-26T11:34:36;18.10;40.10
530;DHT22;251;48.704;9.210;2022-10-26T11:37:14;17.80;41.40
530;DHT22;251;48.704;9.210;2022-10-26T11:39:45;18.00;41.30
530;DHT22;251;48.704;9.210;2022-10-26T11:42:21;17.90;40.00
530;DHT22;251;48.704;9.210;2022-10-26T11:44:54;18.30;39.20
530;DHT22;251;48.704;9.210;2022-10-26T11:47:25;17.80;38.50
530;DHT22;251;48.704;9.210;2022-10-26T11:50:01;17.90;36.60
530;DHT22;251;48.704;9.210;2022-10-26T11:52:34;18.10;36.20
530;DHT22;251;48.704;9.210;2022-10-26T11:55:03;18.30;37.30
530;DHT22;251;48.704;9.210;2022-10-26T11:57:33;18.40;38.10
530;DHT22;251;48.704;9.210;2022-10-26T12:00:03;18.10;35.90
530;DHT22;251;48.704;9.210;2022-10-26T12:02:35;18.50;35.20
530;DHT22;251;48.704;9.210;2022-10-26T12:05:10;18.70;35.70
530;DHT22;251;48.704;9.210;2022-10-26T12:07:46;18.70;33.70
530;DHT22;251;48.704;9.210;2022-10-26T12:10:23;18.90;33.90
530;DHT22;251;48.704;9.210;2022-10-26T12:12:57;18.60;32.30
530;DHT22;251;48.704;9.210;2022-10-26T12:15:29;18.80;32.90
530;DHT22;251;48.704;9.210;2022-10-26T12:18:03;18.80;32.80
530;DHT22;251;48.704;9.210;2022-10-26T12:20:54;18.70;31.90
530;DHT22;251;48.704;9.210;2022-10-26T12:23:28;18.70;32.70
530;DHT22;251;48.704;9.210;2022-10-26T12:26:37;18.70;32.40
530;DHT22;251;48.704;9.210;2022-10-26T12:29:30;18.60;31.40
530;DHT22;251;48.704;9.210;2022-10-26T12:32:01;18.60;32.40
530;DHT22;251;48.704;9.210;2022-10-26T12:34:58;18.70;32.60
530;DHT22;251;48.704;9.210;2022-10-26T12:37:34;18.60;32.40
530;DHT22;251;48.704;9.210;2022-10-26T12:43:34;18.80;33.10
530;DHT22;251;48.704;9.210;2022-10-26T12:52:39;18.60;32.60
530;DHT22;251;48.704;9.210;2022-10-26T13:05:37;18.70;31.70
530;DHT22;251;48.704;9.210;2022-10-26T13:08:09;18.80;31.30
530;DHT22;251;48.704;9.210;2022-10-26T13:10:42;19.00;32.90
530;DHT22;251;48.704;9.210;2022-10-26T13:13:21;19.30;32.30
530;DHT22;251;48.704;9.210;2022-10-26T13:15:53;18.90;31.20
530;DHT22;251;48.704;9.210;2022-10-26T13:18:21;19.00;30.50
530;DHT22;251;48.704;9.210;2022-10-26T13:20:53;19.40;30.80
530;DHT22;251;48.704;9.210;2022-10-26T13:23:28;19.50;29.70
530;DHT22;251;48.704;9.210;2022-10-26T13:26:06;19.60;28.30
530;DHT22;251;48.704;9.210;2022-10-26T13:28:44;19.40;29.10
530;DHT22;251;48.704;9.210;2022-10-26T13:31:43;19.60;28.90
530;DHT22;251;48.704;9.210;2022-10-26T13:34:12;19.40;28.00
530;DHT22;251;48.704;9.210;2022-10-26T13:36:43;19.60;28.90
530;DHT22;251;48.704;9.210;2022-10-26T13:39:16;19.30;28.10
530;DHT22;251;48.704;9.210;2022-10-26T13:41:45;19.40;28.00
530;DHT22;251;48.704;9.210;2022-10-26T13:44:16;19.60;29.30
530;DHT22;251;48.704;9.210;2022-10-26T13:46:45;19.30;29.00
530;DHT22;251;48.704;9.210;2022-10-26T13:49:17;19.00;27.30
530;DHT22;251;48.704;9.210;2022-10-26T13:51:49;19.20;27.50
530;DHT22;251;48.704;9.210;2022-10-26T13:54:26;19.40;28.30
530;DHT22;251;48.704;9.210;2022-10-26T13:57:12;19.30;28.50
530;DHT22;251;48.704;9.210;2022-10-26T13:59:42;19.20;28.00
530;DHT22;251;48.704;9.210;2022-10-26T14:02:18;19.40;29.30
530;DHT22;251;48.704;9.210;2022-10-26T14:04:51;19.30;28.80
530;DHT22;251;48.704;9.210;2022-10-26T14:07:21;19.30;27.40
530;DHT22;251;48.704;9.210;2022-10-26T14:09:51;19.30;27.20
530;DHT22;251;48.704;9.210;2022-10-26T14:12:18;19.50;28.40
530;DHT22;251;48.704;9.210;2022-10-26T14:14:46;19.30;27.20
530;DHT22;251;48.704;9.210;2022-10-26T14:17:18;19.40;27.20
530;DHT22;251;48.704;9.210;2022-10-26T14:19:45;19.20;26.30
530;DHT22;251;48.704;9.210;2022-10-26T14:22:19;19.40;26.40
530;DHT22;251;48.704;9.210;2022-10-26T14:24:52;19.30;27.20
530;DHT22;251;48.704;9.210;2022-10-26T14:27:22;19.30;27.10
530;DHT22;251;48.704;9.210;2022-10-26T14:29:53;19.30;25.30
530;DHT22;251;48.704;9.210;2022-10-26T14:32:26;19.60;25.10
530;DHT22;251;48.704;9.210;2022-10-26T14:34:53;19.20;25.40
530;DHT22;251;48.704;9.210;2022-10-26T14:37:31;19.30;25.90
530;DHT22;251;48.704;9.210;2022-10-26T14:40:00;19.50;25.50
530;DHT22;251;48.704;9.210;2022-10-26T14:42:30;19.40;26.20
530;DHT22;251;48.704;9.210;2022-10-26T14:44:58;19.40;25.40
530;DHT22;251;48.704;9.210;2022-10-26T14:47:27;19.40;25.70
530;DHT22;251;48.704;9.210;2022-10-26T14:49:54;19.50;25.90
530;DHT22;251;48.704;9.210;2022-10-26T14:52:23;19.40;24.70
530;DHT22;251;48.704;9.210;2022-10-26T14:54:58;19.40;25.40
530;DHT22;251;48.704;9.210;2022-10-26T14:57:31;19.40;25.40
530;DHT22;251;48.704;9.210;2022-10-26T15:00:04;19.40;25.90
530;DHT22;251;48.704;9.210;2022-10-26T15:02:38;19.50;25.20
530;DHT22;251;48.704;9.210;2022-10-26T15:05:17;19.50;25.60
530;DHT22;251;48.704;9.210;2022-10-26T15:07:45;19.50;25.60
530;DHT22;251;48.704;9.210;2022-10-26T15:13:22;19.50;25.10
530;DHT22;251;48.704;9.210;2022-10-26T15:15:52;19.40;25.50
530;DHT22;251;48.704;9.210;2022-10-26T15:18:21;19.60;25.30
530;DHT22;251;48.704;9.210;2022-10-26T15:20:50;19.20;25.60
530;DHT22;251;48.704;9.210;2022-10-26T15:23:18;19.30;26.20
530;DHT22;251;48.704;9.210;2022-10-26T15:25:51;19.40;26.30
530;DHT22;251;48.704;9.210;2022-10-26T15:28:29;19.20;26.60
530;DHT22;251;48.704;9.210;2022-10-26T15:31:02;19.20;27.40
530;DHT22;251;48.704;9.210;2022-10-26T15:33:29;18.90;27.00
530;DHT22;251;48.704;9.210;2022-10-26T15:36:11;19.20;26.80
530;DHT22;251;48.704;9.210;2022-10-26T15:38:39;18.90;27.00
530;DHT22;251;48.704;9.210;2022-10-26T15:41:13;19.10;27.20
530;DHT22;251;48.704;9.210;2022-10-26T15:43:46;18.90;27.40
530;DHT22;251;48.704;9.210;2022-10-26T15:46:13;18.70;27.10
530;DHT22;251;48.704;9.210;2022-10-26T15:48:40;18.60;28.00
530;DHT22;251;48.704;9.210;2022-10-26T15:51:10;18.60;28.40
530;DHT22;251;48.704;9.210;2022-10-26T15:53:38;18.60;29.00
530;DHT22;251;48.704;9.210;2022-10-26T15:56:12;18.60;29.50
530;DHT22;251;48.704;9.210;2022-10-26T15:58:44;18.80;30.50
530;DHT22;251;48.704;9.210;2022-10-26T16:01:14;18.10;30.50
530;DHT22;251;48.704;9.210;2022-10-26T16:03:41;18.20;31.30
530;DHT22;251;48.704;9.210;2022-10-26T16:06:13;18.10;32.30
530;DHT22;251;48.704;9.210;2022-10-26T16:08:42;18.00;32.50
530;DHT22;251;48.704;9.210;2022-10-26T16:11:10;17.90;33.40
530;DHT22;251;48.704;9.210;2022-10-26T16:13:37;17.70;34.10
530;DHT22;251;48.704;9.210;2022-10-26T16:16:09;17.60;34.80
530;DHT22;251;48.704;9.210;2022-10-26T16:18:37;17.50;35.00
530;DHT22;251;48.704;9.210;2022-10-26T16:21:04;17.60;36.70
530;DHT22;251;48.704;9.210;2022-10-26T16:23:31;17.30;37.80
530;DHT22;251;48.704;9.210;2022-10-26T16:25:58;17.30;38.10
530;DHT22;251;48.704;9.210;2022-10-26T16:28:25;17.10;39.10
530;DHT22;251;48.704;9.210;2022-10-26T16:30:58;17.20;40.10
530;DHT22;251;48.704;9.210;2022-10-26T16:33:26;16.80;39.70
530;DHT22;251;48.704;9.210;2022-10-26T16:35:57;16.60;40.60
530;DHT22;251;48.704;9.210;2022-10-26T16:38:24;16.50;40.50
530;DHT22;251;48.704;9.210;2022-10-26T16:41:00;16.50;41.10
530;DHT22;251;48.704;9.210;2022-10-26T16:47:46;16.30;42.40
530;DHT22;251;48.704;9.210;2022-10-26T16:50:14;16.00;42.30
530;DHT22;251;48.704;9.210;2022-10-26T16:52:41;15.90;42.00
530;DHT22;251;48.704;9.210;2022-10-26T16:55:08;16.00;42.30
530;DHT22;251;48.704;9.210;2022-10-26T16:57:36;16.00;42.30
530;DHT22;251;48.704;9.210;2022-10-26T17:00:04;15.80;43.40
530;DHT22;251;48.704;9.210;2022-10-26T17:02:31;15.60;42.10
530;DHT22;251;48.704;9.210;2022-10-26T17:04:58;15.40;43.60
530;DHT22;251;48.704;9.210;2022-10-26T17:07:26;15.50;45.00
530;DHT22;251;48.704;9.210;2022-10-26T17:09:53;15.50;44.00
530;DHT22;251;48.704;9.210;2022-10-26T17:12:20;15.20;44.40
530;DHT22;251;48.704;9.210;2022-10-26T17:14:47;15.30;44.30
530;DHT22;251;48.704;9.210;2022-10-26T17:17:14;15.40;45.30
530;DHT22;251;48.704;9.210;2022-10-26T17:19:41;15.00;45.30
530;DHT22;251;48.704;9.210;2022-10-26T17:22:08;15.00;45.00
530;DHT22;251;48.704;9.210;2022-10-26T17:24:37;15.20;45.80
530;DHT22;251;48.704;9.210;2022-10-26T17:27:03;14.90;45.20
530;DHT22;251;48.704;9.210;2022-10-26T17:29:30;14.90;45.60
530;DHT22;251;48.704;9.210;2022-10-26T17:31:57;14.60;46.20
530;DHT22;251;48.704;9.210;2022-10-26T17:34:24;14.50;46.90